Time;durP1;ratioP1;P1;durP2;ratioP2;P2;SDS_P1;SDS_P2;PMS_P1;PMS_P2;Temp;Humidity;BMP_temperature;BMP_pressure;BME280_temperature;BME280_humidity;BME280_pressure;Samples;Min_cycle;Max_cycle;Signal;HPM_P1;HPM_P2
2023/12/11 00:02:00;;;;;;;21.55;13.43;;;;;;;28.52;63.19;100984.06;4975798;28;70257;-39
2023/12/11 00:04:30;;;;;;;39.42;22.95;;;;;;;28.47;65.58;100973.09;4954366;28;66697;-38
2023/12/11 00:07:00;;;;;;;101.97;47.60;;;;;;;28.63;64.28;100998.03;4971480;28;70407;-39
2023/12/11 00:09:30;;;;;;;115.97;59.08;;;;;;;28.65;68.01;100993.28;4953109;28;65544;-38
2023/12/11 00:12:00;;;;;;;122.72;60.28;;;;;;;28.74;70.15;101000.97;4968100;28;70265;-38
2023/12/11 00:14:30;;;;;;;114.68;56.25;;;;;;;28.81;71.24;101003.72;4950281;28;66430;-40
2023/12/11 00:17:00;;;;;;;102.70;49.72;;;;;;;28.78;67.46;100982.53;4966522;28;69810;-38
2023/12/11 00:19:31;;;;;;;89.15;44.03;;;;;;;28.93;72.76;100998.53;4973949;28;65797;-38
2023/12/11 00:22:01;;;;;;;81.30;39.15;;;;;;;29.01;67.61;101011.84;4974891;28;69807;-40
2023/12/11 00:24:31;;;;;;;71.32;37.97;;;;;;;29.06;68.31;101013.97;4943985;28;65632;-39
2023/12/11 00:27:02;;;;;;;72.60;32.83;;;;;;;29.11;68.71;101016.88;4961252;28;70106;-39
2023/12/11 00:29:32;;;;;;;59.63;29.92;;;;;;;29.13;69.96;101020.22;4965222;28;65595;-40
2023/12/11 00:32:03;;;;;;;54.42;27.75;;;;;;;29.15;70.07;101020.84;4970564;28;69383;-40
2023/12/11 00:34:33;;;;;;;51.15;25.85;;;;;;;29.15;69.76;101027.09;4971113;28;67032;-40
2023/12/11 00:37:03;;;;;;;40.88;23.10;;;;;;;29.18;71.41;101029.38;4975479;28;69655;-40
2023/12/11 00:39:34;;;;;;;46.70;22.27;;;;;;;29.30;67.59;101037.69;4969306;28;66866;-40
2023/12/11 00:42:03;;;;;;;38.83;20.83;;;;;;;29.30;67.80;101043.09;4980907;28;70611;-40
2023/12/11 00:44:37;;;;;;;30.17;17.90;;;;;;;29.29;71.70;101052.25;4962801;28;66900;-40
2023/12/11 00:47:07;;;;;;;31.70;19.42;;;;;;;29.29;70.52;101052.25;4963839;28;70225;-40
2023/12/11 00:49:37;;;;;;;29.75;17.42;;;;;;;29.30;71.69;101051.19;4967892;28;66858;-40
2023/12/11 00:52:07;;;;;;;26.38;17.85;;;;;;;29.33;71.35;101058.88;4963990;28;70586;-39
2023/12/11 00:54:37;;;;;;;31.70;18.77;;;;;;;29.29;70.27;101052.25;4952442;28;67125;-39
2023/12/11 00:57:07;;;;;;;27.25;17.83;;;;;;;29.38;68.01;101061.81;4967615;28;70031;-39
2023/12/11 00:59:39;;;;;;;25.98;15.85;;;;;;;29.35;69.01;101054.13;4976181;28;66459;-38
2023/12/11 01:02:09;;;;;;;17.17;15.20;;;;;;;29.43;68.21;101079.28;4976455;28;70013;-38
2023/12/11 01:04:39;;;;;;;22.90;15.23;;;;;;;29.53;67.55;101069.75;4964157;28;65756;-38
2023/12/11 01:07:10;;;;;;;20.67;13.50;;;;;;;29.57;66.17;101076.41;4947790;28;70412;-37
2023/12/11 01:09:41;;;;;;;17.95;13.63;;;;;;;29.62;65.75;101073.09;4978396;28;66710;-38
2023/12/11 01:12:11;;;;;;;19.20;13.02;;;;;;;29.62;65.35;101078.50;4944624;28;69423;-38
2023/12/11 01:14:42;;;;;;;17.90;13.15;;;;;;;29.58;65.29;101067.22;4958141;28;66407;-38
2023/12/11 01:17:12;;;;;;;13.68;11.90;;;;;;;29.68;64.54;101076.84;4946516;28;70341;-38
2023/12/11 01:20:03;;;;;;;14.27;12.75;;;;;;;29.63;64.90;101063.94;4957978;28;67717;-38
2023/12/11 01:22:33;;;;;;;14.15;12.38;;;;;;;29.72;64.65;101073.50;4963595;28;70473;-38
2023/12/11 01:25:03;;;;;;;15.85;12.98;;;;;;;29.74;64.76;101082.25;4955979;28;65164;-38
2023/12/11 01:27:34;;;;;;;14.25;12.40;;;;;;;29.74;64.20;101082.25;4966691;28;69570;-38
2023/12/11 01:30:05;;;;;;;15.90;13.05;;;;;;;29.77;64.61;101084.53;4969060;28;65753;-38
2023/12/11 01:32:36;;;;;;;14.57;12.45;;;;;;;29.80;64.36;101096.81;4968451;28;69303;-38
2023/12/11 01:35:07;;;;;;;14.27;12.80;;;;;;;29.73;64.37;101091.41;4940419;28;66404;-38
2023/12/11 01:37:37;;;;;;;13.57;12.18;;;;;;;29.82;64.30;101095.56;4967969;28;70477;-38
2023/12/11 01:40:09;;;;;;;15.43;12.55;;;;;;;29.83;64.13;101091.81;4977942;28;65840;-37
2023/12/11 01:42:39;;;;;;;14.05;12.68;;;;;;;29.79;64.32;101084.34;4963057;28;70143;-38
2023/12/11 01:45:10;;;;;;;21.58;12.82;;;;;;;29.89;63.75;101100.13;4962326;28;66674;-38
2023/12/11 01:47:40;;;;;;;14.35;12.85;;;;;;;29.89;64.00;101100.13;4963348;28;70288;-37
2023/12/11 01:50:10;;;;;;;14.88;12.38;;;;;;;29.92;63.80;101097.88;4972181;28;65232;-38
2023/12/11 01:52:40;;;;;;;13.63;12.02;;;;;;;29.93;63.79;101102.22;4963256;28;69874;-38
2023/12/11 01:55:11;;;;;;;13.52;12.15;;;;;;;29.94;64.10;101097.66;4975848;28;66359;-38
2023/12/11 01:57:43;;;;;;;13.90;12.52;;;;;;;29.88;64.11;101090.38;4965227;28;70518;-39
2023/12/11 02:00:13;;;;;;;14.85;12.02;;;;;;;29.84;63.85;101081.84;4949067;28;66466;-37
2023/12/11 02:02:43;;;;;;;15.00;11.95;;;;;;;29.98;63.63;101102.44;4971096;28;70495;-38
2023/12/11 02:05:13;;;;;;;11.90;10.90;;;;;;;29.90;63.78;101091.00;4980576;28;66790;-38
2023/12/11 02:07:43;;;;;;;13.02;11.82;;;;;;;30.02;63.85;101100.13;4969406;28;70374;-38
2023/12/11 02:10:14;;;;;;;12.77;11.68;;;;;;;30.02;63.97;101105.53;4932420;28;66388;-38
2023/12/11 02:12:44;;;;;;;12.18;11.07;;;;;;;30.05;63.73;101110.53;4966401;28;70167;-38
2023/12/11 02:15:34;;;;;;;12.32;11.27;;;;;;;30.07;63.55;101105.75;4966247;28;66316;-39
2023/12/11 02:18:04;;;;;;;12.50;11.38;;;;;;;30.07;63.74;101108.47;4968225;28;70529;-38
2023/12/11 02:20:35;;;;;;;12.85;11.38;;;;;;;30.07;63.25;101100.34;4952040;28;66366;-39
2023/12/11 02:23:14;;;;;;;12.38;11.43;;;;;;;29.68;63.76;101034.44;4974773;28;69263;-39
2023/12/11 02:25:48;;;;;;;12.30;11.20;;;;;;;30.01;63.73;101084.97;4962280;28;66461;-38
2023/12/11 02:28:19;;;;;;;13.60;12.25;;;;;;;30.15;63.54;101094.72;4970027;28;69668;-38
2023/12/11 02:30:53;;;;;;;11.98;10.75;;;;;;;30.04;63.27;101081.84;4966397;28;66088;-39
2023/12/11 02:33:23;;;;;;;12.77;11.73;;;;;;;30.19;63.96;101095.94;4953536;28;70691;-38
2023/12/11 02:35:53;;;;;;;12.35;11.38;;;;;;;30.09;63.88;101068.50;4980799;28;66879;-38
2023/12/11 02:38:23;;;;;;;13.45;12.15;;;;;;;30.22;63.56;101090.16;4981246;28;70868;-39
2023/12/11 02:40:53;;;;;;;12.40;11.43;;;;;;;29.96;63.30;101049.59;4954900;28;66142;-38
2023/12/11 02:43:24;;;;;;;12.48;11.52;;;;;;;30.17;63.64;101081.81;4962298;28;71382;-38
2023/12/11 02:45:54;;;;;;;12.82;11.70;;;;;;;30.30;63.52;101088.28;4947183;28;66820;-37
2023/12/11 02:48:24;;;;;;;13.20;12.07;;;;;;;30.27;63.47;101089.53;4974728;28;70389;-38
2023/12/11 02:50:54;;;;;;;12.88;11.75;;;;;;;30.34;63.25;101094.91;4972458;28;65895;-38
2023/12/11 02:53:24;;;;;;;12.90;11.80;;;;;;;30.36;63.82;101087.41;4962897;28;70346;-38
2023/12/11 02:55:54;;;;;;;13.40;12.10;;;;;;;30.36;63.64;101084.72;4961805;28;65503;-37
2023/12/11 02:58:24;;;;;;;14.48;12.88;;;;;;;30.41;63.39;101098.44;4961239;28;70127;-39
2023/12/11 03:00:54;;;;;;;13.77;12.38;;;;;;;30.42;63.49;101097.38;4960835;28;66936;-39
2023/12/11 03:03:24;;;;;;;14.23;12.82;;;;;;;30.42;63.48;101092.84;4963136;28;69264;-38
2023/12/11 03:05:55;;;;;;;13.95;12.75;;;;;;;30.47;63.33;101100.28;4967943;28;66084;-38
2023/12/11 03:08:25;;;;;;;14.63;13.30;;;;;;;30.33;63.42;101066.19;4976295;28;70701;-38
2023/12/11 03:10:55;;;;;;;14.88;13.48;;;;;;;30.50;63.55;101094.44;4970321;28;66350;-37
2023/12/11 03:13:26;;;;;;;13.85;12.55;;;;;;;30.54;63.58;101084.88;4975944;28;70259;-38
2023/12/11 03:15:55;;;;;;;14.18;12.90;;;;;;;30.51;63.40;101077.19;4947722;28;66747;-38
2023/12/11 03:18:25;;;;;;;13.95;12.75;;;;;;;30.59;63.07;101085.06;4975304;28;69888;-40
2023/12/11 03:20:55;;;;;;;14.60;13.18;;;;;;;30.61;63.63;101082.97;4969320;28;66183;-39
2023/12/11 03:23:25;;;;;;;14.75;13.32;;;;;;;30.63;63.27;101075.47;4976567;28;70828;-38
2023/12/11 03:25:55;;;;;;;13.93;12.73;;;;;;;30.66;63.30;101080.44;4958986;28;65617;-38
2023/12/11 03:28:28;;;;;;;14.05;12.73;;;;;;;30.67;63.17;101079.41;4961136;28;68992;-38
2023/12/11 03:30:57;;;;;;;;;;;;;;;30.36;64.40;101073.88;4967697;28;66989;-38
2023/12/11 03:33:27;;;;;;;13.77;12.75;;;;;;;30.68;63.59;101072.13;4970924;28;70623;-37
2023/12/11 03:35:57;;;;;;;14.30;12.88;;;;;;;30.72;63.59;101067.94;4975566;28;65951;-38
2023/12/11 03:38:27;;;;;;;14.57;13.27;;;;;;;30.76;63.46;101062.91;4961786;28;68941;-38
2023/12/11 03:40:57;;;;;;;13.85;12.77;;;;;;;30.78;63.18;101067.06;4977260;28;67091;-38
2023/12/11 03:43:27;;;;;;;15.10;13.90;;;;;;;30.82;63.45;101062.09;4969268;28;70030;-39
2023/12/11 03:45:59;;;;;;;18.92;13.68;;;;;;;30.84;63.24;101055.41;4972698;28;66070;-38
2023/12/11 03:48:30;;;;;;;15.73;14.20;;;;;;;30.80;63.30;101042.53;4941607;28;70785;-38
2023/12/11 03:51:00;;;;;;;15.32;13.90;;;;;;;30.86;63.40;101030.81;4968646;28;66515;-37
2023/12/11 03:53:30;;;;;;;14.32;13.20;;;;;;;30.90;63.55;101041.00;4972670;28;70173;-37
2023/12/11 03:56:00;;;;;;;15.45;14.05;;;;;;;30.94;63.01;101034.09;4949224;28;66841;-39
2023/12/11 03:58:30;;;;;;;14.32;13.15;;;;;;;30.96;63.27;101019.53;4966575;28;70151;-38
2023/12/11 04:01:00;;;;;;;14.75;13.35;;;;;;;30.96;62.92;101014.09;4971224;28;67146;-38
2023/12/11 04:03:31;;;;;;;14.80;13.50;;;;;;;31.00;62.82;101021.56;4977051;28;70922;-38
2023/12/11 04:06:01;;;;;;;14.88;13.32;;;;;;;31.01;63.27;101015.13;4962446;28;66787;-38
2023/12/11 04:08:31;;;;;;;13.88;12.70;;;;;;;30.97;62.96;101005.75;4960780;28;70020;-39
2023/12/11 04:11:01;;;;;;;14.60;13.23;;;;;;;31.09;62.89;101019.41;4966088;28;67189;-37
2023/12/11 04:13:31;;;;;;;14.63;13.45;;;;;;;31.11;62.98;101012.72;4963642;28;70458;-38
2023/12/11 04:16:05;;;;;;;14.65;13.32;;;;;;;31.14;63.08;101006.88;4960581;28;65771;-38
2023/12/11 04:18:39;;;;;;;14.32;13.13;;;;;;;31.17;62.93;101011.88;4959929;28;69452;-38
2023/12/11 04:21:10;;;;;;;14.65;13.45;;;;;;;31.20;62.92;101004.34;4973628;28;65661;-38
2023/12/11 04:23:40;;;;;;;15.52;14.00;;;;;;;31.21;63.01;101006.03;4970514;28;69547;-39
2023/12/11 04:26:10;;;;;;;14.95;13.48;;;;;;;31.24;63.10;101000.16;4960881;28;66544;-38
2023/12/11 04:28:40;;;;;;;14.73;13.30;;;;;;;31.21;63.15;100984.34;4962795;28;69488;-38
2023/12/11 04:31:11;;;;;;;15.80;14.13;;;;;;;31.23;62.87;100982.22;4963220;28;66613;-38
2023/12/11 04:33:42;;;;;;;15.65;14.13;;;;;;;31.28;62.57;100979.69;4939884;28;70381;-38
2023/12/11 04:36:13;;;;;;;16.10;14.05;;;;;;;31.21;63.04;100962.66;4965356;28;67364;-38
2023/12/11 04:38:43;;;;;;;15.23;13.82;;;;;;;31.34;62.60;100973.38;4964625;28;69332;-38
2023/12/11 04:41:13;;;;;;;14.77;13.40;;;;;;;31.35;62.68;100958.78;4960113;28;65506;-38
2023/12/11 04:43:43;;;;;;;14.65;13.65;;;;;;;31.35;62.57;100956.91;4977626;28;69042;-38
2023/12/11 04:46:13;;;;;;;15.95;14.35;;;;;;;31.31;62.92;100950.25;4983078;28;66357;-37
2023/12/11 04:48:43;;;;;;;15.80;14.25;;;;;;;31.34;62.76;100941.69;4970600;28;70434;-38
2023/12/11 04:51:14;;;;;;;15.82;14.35;;;;;;;31.38;62.71;100942.09;4947693;28;65308;-38
2023/12/11 04:53:44;;;;;;;15.00;13.68;;;;;;;31.46;62.66;100949.97;4962589;28;69793;-38
2023/12/11 04:56:14;;;;;;;14.40;13.13;;;;;;;31.44;62.56;100929.53;4973694;28;66069;-39
2023/12/11 04:58:44;;;;;;;15.80;14.20;;;;;;;31.46;62.61;100928.28;4977386;28;69161;-39
2023/12/11 05:01:14;;;;;;;16.08;14.48;;;;;;;31.51;62.67;100919.44;4963342;28;66409;-39
2023/12/11 05:03:44;;;;;;;14.88;13.75;;;;;;;31.52;62.62;100932.78;4964262;28;69547;-39
2023/12/11 05:06:14;;;;;;;14.85;13.52;;;;;;;31.53;62.34;100918.16;4975405;28;66363;-39
2023/12/11 05:08:44;;;;;;;14.98;13.52;;;;;;;31.56;62.32;100908.75;4952194;28;69220;-38
2023/12/11 05:11:14;;;;;;;15.35;13.90;;;;;;;31.61;62.44;100908.94;4983674;28;66226;-38
2023/12/11 05:13:44;;;;;;;14.80;13.57;;;;;;;31.61;62.12;100906.22;4975858;28;69585;-39
2023/12/11 05:16:14;;;;;;;14.98;13.60;;;;;;;31.60;62.17;100891.00;4960073;28;66283;-38
2023/12/11 05:18:44;;;;;;;14.82;13.52;;;;;;;31.64;62.32;100891.38;4972084;28;69710;-39
2023/12/11 05:21:15;;;;;;;14.88;13.68;;;;;;;31.64;62.22;100880.53;4950342;28;66775;-39
2023/12/11 05:23:44;;;;;;;14.07;12.77;;;;;;;31.71;62.15;100886.72;4962162;28;69093;-39
2023/12/11 05:26:21;;;;;;;14.57;13.07;;;;;;;31.72;62.51;100885.66;4977153;28;66263;-38
2023/12/11 05:28:51;;;;;;;15.65;14.18;;;;;;;31.73;62.06;100876.47;4968263;28;70086;-38
2023/12/11 05:31:21;;;;;;;14.25;13.02;;;;;;;31.79;62.05;100864.72;4954550;28;65975;-38
2023/12/11 05:33:51;;;;;;;14.57;13.38;;;;;;;31.78;62.03;100861.16;4979808;28;70407;-39
2023/12/11 05:36:21;;;;;;;14.13;13.02;;;;;;;31.81;61.94;100859.88;4946566;28;65963;-38
2023/12/11 05:38:51;;;;;;;15.55;13.95;;;;;;;31.80;61.92;100853.63;4967323;28;70877;-38
2023/12/11 05:41:21;;;;;;;13.27;12.38;;;;;;;31.82;62.01;100845.28;4979435;28;65631;-40
2023/12/11 05:43:51;;;;;;;13.85;12.55;;;;;;;31.89;61.74;100851.44;4966556;28;70546;-39
2023/12/11 05:46:21;;;;;;;14.32;12.88;;;;;;;31.89;61.65;100845.19;4969889;28;66852;-39
2023/12/11 05:48:51;;;;;;;13.73;12.82;;;;;;;31.84;61.52;100810.59;4962822;28;69913;-38
2023/12/11 05:51:22;;;;;;;13.68;12.43;;;;;;;31.95;61.65;100828.03;4978555;28;66006;-39
2023/12/11 05:53:55;;;;;;;14.52;13.43;;;;;;;31.94;61.82;100816.34;4968102;28;70690;-38
2023/12/11 05:56:25;;;;;;;14.23;12.98;;;;;;;31.98;61.67;100820.28;4977640;28;66611;-37
2023/12/11 05:58:55;;;;;;;14.02;12.82;;;;;;;31.93;61.44;100803.84;4980062;28;70085;-38
2023/12/11 06:01:26;;;;;;;14.43;13.13;;;;;;;31.68;61.51;100755.13;4971365;28;67000;-39
2023/12/11 06:03:57;;;;;;;13.15;12.13;;;;;;;31.94;61.57;100799.25;4967641;28;70262;-37
2023/12/11 06:06:27;;;;;;;13.20;11.85;;;;;;;32.04;61.38;100794.94;4963351;28;65691;-38
2023/12/11 06:08:59;;;;;;;14.57;13.40;;;;;;;32.04;61.36;100789.50;4967885;28;69540;-38
2023/12/11 06:11:29;;;;;;;13.52;12.27;;;;;;;32.03;61.17;100770.72;4974977;28;65541;-38
2023/12/11 06:13:59;;;;;;;14.45;13.07;;;;;;;32.11;61.18;100777.72;4957636;28;68925;-38
2023/12/11 06:16:29;;;;;;;13.93;12.82;;;;;;;32.15;61.11;100768.03;4971256;28;66401;-38
2023/12/11 06:18:59;;;;;;;14.35;12.65;;;;;;;32.16;61.10;100761.56;4964766;28;70495;-39
2023/12/11 06:21:30;;;;;;;13.57;12.38;;;;;;;32.19;61.23;100758.41;4937585;28;65834;-50
2023/12/11 06:24:00;;;;;;;12.77;11.98;;;;;;;32.16;61.06;100745.28;4980279;28;70371;-38
2023/12/11 06:26:31;;;;;;;12.88;11.95;;;;;;;31.80;60.88;100680.03;4968349;28;65778;-39
2023/12/11 06:29:02;;;;;;;14.25;13.13;;;;;;;32.24;60.99;100745.78;4971361;28;70205;-38
2023/12/11 06:31:32;;;;;;;13.10;12.10;;;;;;;32.24;61.18;100744.97;4946331;28;65652;-38
2023/12/11 06:34:03;;;;;;;13.32;12.18;;;;;;;32.23;60.97;100727.00;4973556;28;70273;-38
2023/12/11 06:36:33;;;;;;;12.57;11.80;;;;;;;32.27;60.65;100722.78;4963745;28;67334;-38
2023/12/11 06:39:03;;;;;;;13.30;12.25;;;;;;;32.28;60.91;100717.09;4960292;28;70105;-38
2023/12/11 06:41:36;;;;;;;12.95;11.85;;;;;;;32.27;60.77;100718.16;4967340;28;66447;-39
2023/12/11 06:44:08;;;;;;;13.15;11.98;;;;;;;32.30;60.89;100705.19;4959293;28;70072;-39
2023/12/11 06:46:38;;;;;;;;;;;;;;;32.13;61.51;100715.91;4952278;28;66442;-38
2023/12/11 06:49:08;;;;;;;12.73;11.75;;;;;;;32.35;60.94;100713.47;4970247;28;69582;-39
2023/12/11 06:51:38;;;;;;;13.10;12.10;;;;;;;32.40;60.86;100706.28;4964838;28;65581;-39
2023/12/11 06:54:10;;;;;;;13.27;12.10;;;;;;;32.44;60.33;100709.34;4955304;28;70435;-38
2023/12/11 06:56:41;;;;;;;12.07;11.23;;;;;;;32.47;60.48;100701.56;4942140;28;64874;-38
2023/12/11 06:59:12;;;;;;;13.20;12.38;;;;;;;32.50;60.47;100700.28;4957923;28;70854;-39
2023/12/11 07:01:42;;;;;;;13.38;12.32;;;;;;;32.51;60.35;100690.22;4948533;28;65281;-38
2023/12/11 07:04:12;;;;;;;12.70;11.80;;;;;;;32.49;60.49;100683.16;4951252;28;70023;-38
2023/12/11 07:06:42;;;;;;;13.68;12.57;;;;;;;32.59;60.66;100679.03;4963684;28;66308;-39
2023/12/11 07:09:13;;;;;;;13.80;12.48;;;;;;;32.61;60.31;100690.47;4960516;28;69925;-39
2023/12/11 07:11:43;;;;;;;13.40;12.20;;;;;;;32.63;60.77;100677.50;4957954;28;66171;-38
2023/12/11 07:14:13;;;;;;;12.30;11.43;;;;;;;32.67;60.25;100678.66;4979387;28;70154;-38
2023/12/11 07:16:43;;;;;;;13.02;11.68;;;;;;;32.65;60.16;100669.91;4981085;28;66400;-38
2023/12/11 07:19:13;;;;;;;15.00;12.10;;;;;;;32.72;60.15;100682.31;4954821;28;69124;-39
2023/12/11 07:21:43;;;;;;;11.93;10.90;;;;;;;32.75;60.19;100675.59;4958720;28;66278;-38
2023/12/11 07:24:13;;;;;;;12.38;11.50;;;;;;;32.80;59.98;100678.41;4963952;28;70090;-39
2023/12/11 07:26:45;;;;;;;12.25;11.10;;;;;;;32.80;60.02;100673.00;4947212;28;66021;-39
2023/12/11 07:29:15;;;;;;;12.70;11.45;;;;;;;32.81;60.06;100663.75;4962565;28;69627;-39
2023/12/11 07:31:45;;;;;;;11.82;10.90;;;;;;;32.90;59.82;100661.50;4950523;28;66207;-38
2023/12/11 07:34:16;;;;;;;12.35;11.35;;;;;;;32.89;59.73;100660.69;4948418;28;70310;-38
2023/12/11 07:36:46;;;;;;;11.02;10.32;;;;;;;32.90;59.75;100666.94;4979410;28;66646;-38
2023/12/11 07:39:16;;;;;;;11.95;10.70;;;;;;;32.99;59.51;100664.66;4966061;28;70394;-38
2023/12/11 07:41:46;;;;;;;11.00;10.30;;;;;;;33.03;59.60;100665.88;4973470;28;65811;-46
2023/12/11 07:44:16;;;;;;;11.48;10.52;;;;;;;33.07;59.57;100669.75;4963669;28;69554;-39
2023/12/11 07:46:46;;;;;;;11.05;10.15;;;;;;;33.11;59.33;100662.78;4970305;28;65782;-38
2023/12/11 07:49:16;;;;;;;11.40;10.50;;;;;;;33.08;59.19;100652.41;4957715;28;69955;-42
2023/12/11 07:51:47;;;;;;;10.95;10.20;;;;;;;33.19;59.21;100665.13;4969383;28;66569;-39
2023/12/11 07:54:17;;;;;;;10.88;10.18;;;;;;;33.24;59.23;100672.53;4974702;28;68901;-40
2023/12/11 07:56:48;;;;;;;10.82;10.13;;;;;;;33.26;58.96;100671.25;4955456;28;66831;-38
2023/12/11 07:59:18;;;;;;;10.00;9.32;;;;;;;33.29;58.87;100665.34;4951730;28;70535;-38
2023/12/11 08:01:49;;;;;;;10.48;9.77;;;;;;;33.33;58.71;100671.94;4971877;28;66911;-39
2023/12/11 08:04:19;;;;;;;10.83;9.83;;;;;;;33.35;58.76;100667.09;4971873;28;71431;-39
2023/12/11 08:06:50;;;;;;;10.00;9.30;;;;;;;33.41;58.84;100664.47;4968958;28;66507;-39
2023/12/11 08:09:20;;;;;;;10.27;9.57;;;;;;;33.47;58.47;100668.94;4954827;28;70148;-39
2023/12/11 08:11:50;;;;;;;10.55;9.93;;;;;;;33.51;58.35;100661.94;4965457;28;66678;-38
2023/12/11 08:14:21;;;;;;;9.50;8.77;;;;;;;33.49;58.61;100645.03;4980145;28;70142;-39
2023/12/11 08:16:51;;;;;;;9.68;9.02;;;;;;;33.54;58.04;100654.16;4965388;28;66160;-39
2023/12/11 08:19:21;;;;;;;9.73;9.13;;;;;;;33.50;58.35;100638.53;4967388;28;70045;-38
2023/12/11 08:21:52;;;;;;;10.18;9.10;;;;;;;33.68;58.16;100657.38;4952639;28;65170;-38
2023/12/11 08:24:23;;;;;;;9.73;9.23;;;;;;;33.72;57.92;100657.72;4976206;28;70100;-39
2023/12/11 08:26:54;;;;;;;9.00;8.50;;;;;;;33.74;58.01;100656.41;4975792;28;66225;-39
2023/12/11 08:29:26;;;;;;;9.63;8.85;;;;;;;33.76;57.60;100651.53;4955159;28;69591;-38
2023/12/11 08:31:56;;;;;;;9.73;9.10;;;;;;;33.80;57.77;100647.25;4960649;28;65996;-39
2023/12/11 08:34:26;;;;;;;8.38;7.97;;;;;;;33.88;57.46;100650.63;4936268;28;70531;-39
2023/12/11 08:36:57;;;;;;;8.93;8.35;;;;;;;33.87;57.14;100638.09;4948924;28;66939;-39
2023/12/11 08:39:27;;;;;;;9.07;8.45;;;;;;;33.94;57.18;100646.94;4971276;28;70397;-38
2023/12/11 08:41:57;;;;;;;9.32;8.70;;;;;;;34.01;57.34;100653.03;4973240;28;66692;-38
2023/12/11 08:44:29;;;;;;;9.10;8.57;;;;;;;34.05;57.10;100659.69;4976570;28;69268;-39
2023/12/11 08:46:59;;;;;;;8.82;8.27;;;;;;;34.08;57.22;100661.91;4937454;28;65963;-38
2023/12/11 08:49:29;;;;;;;7.65;7.15;;;;;;;34.13;56.85;100664.72;4967424;28;70784;-38
2023/12/11 08:52:00;;;;;;;8.48;7.97;;;;;;;34.17;56.61;100671.28;4971894;28;66829;-38
2023/12/11 08:54:31;;;;;;;9.15;8.25;;;;;;;34.18;56.82;100664.78;4984035;28;72021;-39
2023/12/11 08:57:00;;;;;;;8.88;8.32;;;;;;;34.24;56.54;100666.53;4956527;28;66098;-39
2023/12/11 08:59:32;;;;;;;8.50;7.97;;;;;;;34.28;56.07;100666.03;4938681;28;69063;-38
2023/12/11 09:02:02;;;;;;;8.73;8.15;;;;;;;34.28;56.58;100671.47;4977444;28;67077;-40
2023/12/11 09:04:34;;;;;;;8.60;8.00;;;;;;;34.33;55.98;100669.66;4982198;28;70479;-38
2023/12/11 09:07:07;;;;;;;8.10;7.47;;;;;;;34.37;56.46;100681.69;4974879;28;66276;-39
2023/12/11 09:09:38;;;;;;;8.57;8.00;;;;;;;34.39;56.34;100674.09;4959425;28;68772;-39
2023/12/11 09:12:09;;;;;;;8.38;7.78;;;;;;;34.42;56.03;100678.22;4968103;28;66038;-39
2023/12/11 09:14:56;;;;;;;8.13;7.53;;;;;;;34.43;55.63;100680.66;4945131;28;70058;-39
2023/12/11 09:17:26;;;;;;;7.78;7.38;;;;;;;34.50;55.62;100683.25;4972921;28;67271;-39
2023/12/11 09:19:57;;;;;;;8.80;8.10;;;;;;;34.52;55.62;100677.53;4944073;28;70493;-39
2023/12/11 09:22:27;;;;;;;8.57;7.70;;;;;;;34.27;56.37;100684.25;4969038;28;65973;-38
2023/12/11 09:24:57;;;;;;;9.13;8.35;;;;;;;33.81;57.98;100678.81;4956447;28;71446;-39
2023/12/11 09:27:27;;;;;;;9.98;9.00;;;;;;;33.69;59.04;100690.84;4954898;28;66733;-39
2023/12/11 09:29:59;;;;;;;9.90;8.57;;;;;;;33.55;60.03;100690.34;4966420;28;70176;-39
2023/12/11 09:32:29;;;;;;;9.05;8.32;;;;;;;33.51;59.96;100697.28;4970743;28;67176;-40
2023/12/11 09:34:59;;;;;;;9.18;8.57;;;;;;;33.49;60.09;100696.69;4964679;28;69970;-39
2023/12/11 09:37:29;;;;;;;10.90;9.18;;;;;;;33.35;60.82;100693.47;4958780;28;66238;-39
2023/12/11 09:40:00;;;;;;;9.70;8.73;;;;;;;33.22;61.22;100691.00;4955092;28;69969;-40
2023/12/11 09:42:31;;;;;;;9.63;9.02;;;;;;;33.29;61.10;100697.97;4952993;28;65634;-39
2023/12/11 09:45:03;;;;;;;9.53;8.83;;;;;;;33.22;62.02;100707.31;4975124;28;70434;-39
2023/12/11 09:47:36;;;;;;;;;;;;;;;32.87;63.44;100706.28;4976738;28;66315;-38
2023/12/11 09:50:07;;;;;;;11.02;9.85;;;;;;;33.48;61.13;100711.34;4968210;28;70573;-39
2023/12/11 09:52:42;;;;;;;9.57;8.82;;;;;;;33.74;59.87;100716.25;4963244;28;65802;-39
2023/12/11 09:55:12;;;;;;;9.93;9.18;;;;;;;33.87;59.28;100719.72;4967838;28;69762;-39
2023/12/11 09:57:42;;;;;;;10.13;9.43;;;;;;;34.00;58.81;100724.88;4967695;28;65653;-38
2023/12/11 10:00:13;;;;;;;10.02;9.32;;;;;;;34.09;58.80;100723.41;4977103;28;69085;-38
2023/12/11 10:02:50;;;;;;;9.57;8.98;;;;;;;34.09;58.58;100717.97;4983080;28;65126;-39
2023/12/11 10:05:25;;;;;;;10.27;9.00;;;;;;;33.83;59.15;100675.06;4971230;28;70392;-38
2023/12/11 10:07:55;;;;;;;9.55;8.90;;;;;;;34.22;58.79;100739.44;4971584;28;66020;-38
2023/12/11 10:10:33;;;;;;;10.70;9.60;;;;;;;34.22;59.02;100734.00;4967943;28;70106;-38
2023/12/11 10:13:03;;;;;;;9.20;8.50;;;;;;;34.24;58.78;100728.28;4984152;28;66499;-38
2023/12/11 10:15:35;;;;;;;10.02;9.07;;;;;;;33.90;58.70;100676.53;4967934;28;69659;-38
2023/12/11 10:18:08;;;;;;;8.98;8.25;;;;;;;34.23;58.67;100735.63;4973857;28;65689;-39
2023/12/11 10:20:40;;;;;;;9.23;8.68;;;;;;;34.25;58.49;100736.22;4975624;28;70251;-38
2023/12/11 10:23:18;;;;;;;9.18;8.38;;;;;;;34.30;58.86;100740.09;4951521;28;65053;-38
2023/12/11 10:25:51;;;;;;;9.30;8.57;;;;;;;34.23;58.36;100738.34;4959810;28;70423;-38
2023/12/11 10:28:23;;;;;;;8.45;7.85;;;;;;;33.62;58.26;100636.59;4967812;28;66407;-39
2023/12/11 10:30:59;;;;;;;8.45;7.95;;;;;;;34.10;58.61;100719.66;4979716;28;70349;-39
2023/12/11 10:33:33;;;;;;;9.00;8.20;;;;;;;33.84;59.55;100752.88;4971768;28;65326;-40
2023/12/11 10:36:12;;;;;;;8.85;8.07;;;;;;;33.27;61.00;100700.09;4966696;28;70398;-39
2023/12/11 10:38:43;;;;;;;8.82;7.88;;;;;;;33.46;61.68;100757.00;4953823;28;66870;-39
2023/12/11 10:41:26;;;;;;;8.65;7.70;;;;;;;33.27;62.33;100748.22;4970131;28;69916;-39
2023/12/11 10:43:56;;;;;;;9.68;7.50;;;;;;;33.33;62.35;100758.94;4962801;28;66959;-40
2023/12/11 10:46:45;;;;;;;8.23;7.72;;;;;;;33.29;62.33;100763.22;4970499;28;70013;-39
2023/12/11 10:49:15;;;;;;;9.32;7.97;;;;;;;33.18;62.45;100750.44;4967514;28;66298;-39
2023/12/11 10:51:47;;;;;;;7.68;7.18;;;;;;;33.19;63.01;100762.16;4953342;28;69852;-39
2023/12/11 10:54:19;;;;;;;8.10;7.45;;;;;;;32.90;62.77;100724.84;4933895;28;66029;-40
2023/12/11 10:56:51;;;;;;;13.88;8.10;;;;;;;33.14;63.33;100766.41;4945151;28;70167;-40
2023/12/11 10:59:22;;;;;;;7.70;7.20;;;;;;;33.10;62.94;100770.69;4971339;28;66607;-39
2023/12/11 11:01:54;;;;;;;7.77;7.27;;;;;;;33.10;62.76;100757.09;4972153;28;69633;-40
2023/12/11 11:04:26;;;;;;;8.15;7.20;;;;;;;33.12;63.40;100773.16;4973150;28;68274;-39
2023/12/11 11:07:17;;;;;;;7.93;7.20;;;;;;;32.90;63.80;100757.44;4971574;28;69875;-39
2023/12/11 11:09:53;;;;;;;8.00;7.38;;;;;;;33.41;61.59;100776.78;4971190;28;65367;-40
2023/12/11 11:12:39;;;;;;;7.47;6.97;;;;;;;33.51;61.60;100778.84;4969506;28;69576;-40
2023/12/11 11:15:12;;;;;;;7.97;7.47;;;;;;;33.64;60.67;100786.78;4956893;28;65553;-39
2023/12/11 11:18:03;;;;;;;8.65;7.72;;;;;;;33.63;61.06;100809.63;4966441;28;43080;-39
2023/12/11 11:20:35;;;;;;;8.65;8.02;;;;;;;33.70;60.23;100802.13;4963075;28;66755;-39
2023/12/11 11:23:26;;;;;;;;;;;;;;;33.51;61.36;100797.91;4969967;28;69657;-39
2023/12/11 11:25:56;;;;;;;8.07;7.28;;;;;;;33.67;60.21;100789.00;4970167;28;65902;-39
2023/12/11 11:28:41;;;;;;;8.38;7.53;;;;;;;33.67;60.30;100786.28;4962785;28;70053;-39
2023/12/11 11:31:13;;;;;;;7.05;6.40;;;;;;;33.73;59.79;100790.75;4966723;28;66759;-40
2023/12/11 11:33:56;;;;;;;7.68;7.07;;;;;;;33.74;60.20;100786.13;4951650;28;70067;-40